Date,TemperatureHighF,TemperatureAvgF,TemperatureLowF,DewpointHighF,DewpointAvgF,DewpointLowF,HumidityHigh,HumidityAvg,HumidityLow,PressureMaxIn,PressureMinIn,WindSpeedMaxMPH,WindSpeedAvgMPH,GustSpeedMaxMPH,PrecipitationSumIn
2013-2-11,34,32,28,13,11,10,49,42,38,29.92,29.86,0,0,0,0.12
2013-2-12,50,36,22,14,0,-12,58,27,9,30.03,29.92,8,1,8,0.12
2013-2-13,60,42,26,7,-4,-11,38,16,7,30.01,29.86,8,1,8,0.12
2013-2-14,46,40,34,0,-6,-11,23,14,10,30.01,29.92,8,1,8,0.00
2013-2-15,68,49,34,0,-8,-12,15,9,5,30.12,30.01,10,1,10,0.00
2013-2-16,72,50,30,-4,-9,-15,13,9,4,30.12,29.86,6,0,6,0.00
2013-2-17,69,50,32,-4,-8,-13,13,9,5,29.86,29.59,15,2,16,0.00
2013-2-18,66,49,32,-4,-8,-14,13,9,5,29.86,29.74,9,1,10,0.00
2013-2-19,63,47,34,-4,-9,-13,13,9,6,29.74,29.44,17,4,17,0.00
2013-2-20,46,38,33,31,20,-9,76,52,10,29.65,29.41,15,4,15,0.00
2013-2-21,46,36,32,27,23,14,75,60,30,29.80,29.65,13,1,13,0.00
2013-2-22,53,39,25,29,7,-12,78,37,8,29.89,29.77,11,1,11,0.00
2013-2-23,58,42,26,8,-2,-10,40,18,7,29.89,29.59,23,5,23,0.00
2013-2-24,49,41,30,13,-7,-13,44,14,9,29.86,29.65,20,8,20,0.00
2013-2-25,59,42,25,-5,-10,-18,14,11,7,29.98,29.80,10,1,10,0.00
2013-2-26,57,42,28,-5,-10,-16,16,11,7,29.92,29.77,20,4,20,0.00
2013-2-27,58,43,26,-5,-10,-19,14,10,7,30.03,29.92,12,2,12,0.00
2013-2-28,65,46,30,-4,-9,-17,13,10,5,30.12,30.01,9,2,232,0.00
2013-3-1,73,53,33,-4,-8,-13,13,8,4,30.18,30.01,8,1,8,0.00
2013-3-2,77,58,39,-4,-8,-12,11,7,3,30.12,29.92,8,1,8,0.00
2013-3-3,68,54,41,-4,-7,-10,13,8,5,29.92,29.74,15,2,15,0.00
2013-3-4,70,58,46,-4,-6,-9,10,7,4,29.89,29.68,13,2,13,0.00
2013-3-5,71,54,39,12,-3,-9,31,11,4,29.98,29.80,13,2,13,0.00
2013-3-6,72,56,38,10,-5,-10,26,9,4,29.86,29.71,18,4,18,0.00
2013-3-7,70,54,38,1,-6,-10,19,9,5,29.77,29.68,18,3,18,0.00
2013-3-8,54,43,36,41,23,-8,85,54,8,29.71,29.50,18,3,18,0.67
2013-3-9,44,36,35,30,27,22,78,69,43,29.74,29.68,10,1,10,0.00
2013-3-14,73,65,58,-4,-6,-9,7,5,4,29.92,29.89,7,1,7,0.00
2013-3-15,84,66,48,0,-8,-17,12,5,2,29.92,29.74,14,2,15,0.00
2013-3-16,80,62,50,0,-7,-17,11,6,2,29.77,29.59,35,2,35,0.00
2013-3-17,79,61,45,18,-1,-17,33,11,2,29.74,29.62,26,2,26,0.00
2013-3-18,77,60,42,-4,-8,-12,11,7,3,29.83,29.71,16,2,16,0.00
2013-3-19,76,62,51,-4,-7,-12,9,6,3,29.89,29.74,15,2,15,0.00
2013-3-20,75,61,48,-4,-7,-12,9,6,3,29.89,29.68,20,3,20,0.00
2013-3-21,78,65,49,0,-7,-12,11,6,3,29.68,29.53,15,3,15,0.00
2013-3-22,72,58,41,-4,-7,-10,11,7,4,29.65,29.50,11,1,11,0.00
2013-3-23,65,52,38,-4,-7,-12,11,8,5,29.83,29.62,27,6,27,0.00
2013-3-24,72,54,34,-4,-8,-13,12,8,4,29.86,29.68,17,3,17,0.00
2013-3-25,75,58,38,-4,-8,-12,11,7,3,29.86,29.74,13,2,13,0.00
2013-3-26,75,59,43,-4,-7,-12,10,7,3,29.83,29.68,16,1,18,0.00
2013-3-27,76,60,44,-4,-7,-12,10,7,3,29.80,29.71,17,2,17,0.00
2013-3-28,76,57,43,-4,-7,-12,10,7,3,29.89,29.80,14,2,14,0.00
2013-3-29,80,64,47,-4,-8,-17,9,6,2,29.95,29.83,13,2,13,0.00
2013-3-30,76,62,50,-4,-7,-12,9,6,3,29.95,29.80,11,1,11,0.00
2013-3-31,81,64,46,-4,-8,-17,10,6,2,29.89,29.74,20,3,24,0.00
2013-4-1,75,62,47,2,-6,-12,14,6,3,29.80,29.71,15,2,15,0.00
2013-4-2,74,59,42,-4,-7,-12,11,7,3,29.80,29.68,21,2,232,0.00
2013-4-3,79,62,44,-4,-7,-12,10,6,3,29.89,29.77,9,1,9,0.00
2013-4-4,82,64,47,-4,-8,-17,9,6,2,29.95,29.77,14,2,14,0.00
2013-4-5,80,67,51,-4,-8,-17,9,5,2,29.80,29.68,16,2,16,0.00
2013-4-6,81,65,48,-4,-8,-17,9,6,2,29.83,29.65,17,2,17,0.00
2013-4-7,81,64,47,-4,-8,-17,9,6,2,29.74,29.56,15,2,15,0.00
2013-4-8,65,57,48,-4,-6,-8,9,7,5,29.56,29.27,34,8,34,0.00
2013-4-9,62,52,46,16,-2,-9,29,11,6,29.71,29.36,20,8,232,0.00
2013-4-10,68,54,39,-4,-7,-11,14,8,5,29.86,29.71,17,3,17,0.00
2013-4-11,66,54,43,-4,-7,-10,11,8,5,29.80,29.62,12,1,12,0.00
2013-4-12,53,50,47,-6,-7,-9,9,9,8,29.68,29.65,6,0,6,0.00
2013-4-13,81,73,62,-4,-10,-17,6,4,2,29.71,29.53,18,3,18,0.00
2013-4-14,78,67,55,-4,-7,-12,7,5,3,29.59,29.47,20,6,20,0.00
2013-4-15,74,64,53,-4,-6,-12,8,6,3,29.59,29.50,23,8,23,0.00
2013-4-16,69,60,49,12,-4,-8,18,8,5,29.62,29.50,28,10,30,0.00
2013-4-17,62,52,42,-4,-7,-10,11,8,6,29.89,29.62,22,7,22,0.00
2013-4-18,66,51,34,-4,-8,-13,12,8,5,30.01,29.89,13,3,13,0.00
2013-4-19,76,60,39,-4,-8,-12,11,6,3,30.03,29.77,12,2,12,0.00
2013-4-20,81,64,42,-4,-9,-16,11,6,2,29.86,29.71,21,2,21,0.00
2013-4-21,85,75,57,-4,-10,-17,7,3,2,29.92,29.74,13,2,13,0.00
2013-4-22,87,70,50,-4,-9,-17,9,5,2,29.83,29.62,20,2,20,0.00
2013-4-23,80,67,53,-4,-8,-17,8,5,2,29.77,29.65,11,1,11,0.00
2013-4-24,71,61,47,-4,-6,-9,9,6,4,29.77,29.71,8,0,9,0.00
2013-4-25,76,64,50,-4,-7,-12,9,6,3,29.86,29.71,13,1,13,0.00
2013-4-26,83,66,47,-4,-9,-17,9,5,2,29.98,29.86,13,1,13,0.00
2013-4-27,87,70,50,-4,-9,-16,9,5,2,29.98,29.77,17,2,17,0.00
2013-4-28,90,72,50,-4,-8,-17,9,4,2,29.86,29.65,10,1,10,0.00
2013-4-29,93,76,53,-4,-9,-17,8,4,2,29.74,29.53,16,2,16,0.00
2013-4-30,90,76,57,-4,-9,-16,7,4,2,29.65,29.56,18,2,18,0.00
2013-5-1,89,72,54,-4,-9,-17,8,4,2,29.98,29.65,15,1,15,0.00
2013-5-2,78,65,52,-4,-7,-12,9,6,3,30.12,29.98,18,3,18,0.00
2013-5-3,84,67,48,-4,-9,-16,9,5,2,30.01,29.68,11,2,11,0.00
2013-5-4,86,68,49,-4,-9,-17,9,5,2,29.71,29.56,9,1,9,0.00
2013-5-5,80,70,60,-4,-8,-17,7,4,2,29.74,29.65,15,2,15,0.00
2013-5-6,75,65,57,-4,-6,-12,7,5,3,29.80,29.71,18,3,18,0.00
2013-5-7,68,59,53,20,2,-7,22,10,5,29.80,29.74,17,4,17,0.00
2013-5-8,72,68,58,-4,-7,-9,7,5,4,29.83,29.77,10,2,10,0.00
2013-5-9,78,63,48,-4,-7,-12,9,6,3,29.86,29.77,17,2,17,0.00
2013-5-10,84,67,47,18,-6,-17,29,7,2,29.95,29.80,16,2,16,0.00
2013-5-11,86,68,55,-4,-8,-14,8,5,2,30.01,29.89,12,1,12,0.00
2013-5-12,91,86,75,-9,-11,-17,3,2,2,30.03,29.83,13,1,13,0.00
2013-5-13,84,82,77,-10,-13,-14,3,2,2,29.86,29.80,10,1,10,0.00
2013-5-14,83,79,77,-9,-11,-17,3,3,2,29.80,29.74,4,0,4,0.00
2013-5-15,88,79,65,-7,-10,-12,5,3,2,29.80,29.71,5,1,5,0.00
2013-5-16,85,78,58,-5,-12,-17,7,3,2,29.77,29.65,10,1,10,0.00
2013-5-17,82,76,68,-4,-11,-17,5,3,2,29.77,29.71,15,1,15,0.00
2013-5-18,83,76,63,-5,-11,-16,6,3,2,29.80,29.68,10,1,10,0.00
2013-5-19,87,78,64,-4,-11,-17,6,3,2,29.80,29.62,14,2,14,0.00
2013-5-20,83,78,73,-6,-13,-17,4,3,2,29.77,29.71,10,0,10,0.00
2013-5-21,78,75,73,-6,-10,-12,4,3,3,29.77,29.65,10,1,10,0.00
2013-5-22,73,58,55,-5,-7,-8,8,7,4,29.68,29.68,0,0,0,0.00
2013-5-23,83,73,55,-4,-9,-15,8,4,2,29.71,29.65,6,1,6,0.00
2013-5-24,86,79,58,-4,-12,-16,7,3,2,29.83,29.65,10,1,10,0.00
2013-5-25,90,86,78,-9,-12,-17,3,2,2,29.83,29.74,17,5,17,0.00
2013-5-26,87,74,53,-4,-10,-16,8,4,2,29.83,29.74,13,1,13,0.00
2013-5-27,73,65,59,-4,-6,-12,7,6,3,29.80,29.77,6,0,10,0.00
2013-5-28,86,79,71,-6,-11,-16,4,3,2,29.56,29.50,8,0,8,0.00
2013-5-29,91,82,62,-5,-11,-17,6,3,2,29.62,29.53,15,4,15,0.00
2013-5-30,90,82,66,-4,-10,-14,5,3,2,29.74,29.59,8,1,8,0.00
2013-5-31,86,79,73,-9,-12,-17,3,2,2,29.80,29.71,6,1,6,0.00
2013-6-1,98,90,75,-4,-9,-16,3,2,2,29.83,29.65,13,2,13,0.00
2013-6-2,99,84,65,-4,-9,-16,5,3,2,29.74,29.62,19,3,20,0.00
2013-6-3,96,82,64,-4,-9,-17,6,3,2,29.77,29.65,12,1,12,0.00
2013-6-4,95,80,59,-4,-8,-17,7,3,2,29.80,29.68,16,2,16,0.00
2013-6-5,100,82,61,-3,-8,-16,6,3,2,29.83,29.65,15,2,15,0.00
2013-6-6,103,85,63,50,25,-12,18,13,3,29.77,29.62,11,1,11,0.00
2013-6-7,104,88,66,51,38,24,20,18,17,29.77,29.59,13,2,13,0.00
2013-6-8,104,87,66,51,38,23,20,18,17,29.77,29.65,19,3,19,0.00
2013-6-9,104,87,67,51,38,25,20,18,17,29.83,29.68,14,0,14,0.00
2013-6-10,100,84,65,48,36,22,20,18,17,29.83,29.71,18,2,18,0.00
2013-6-11,102,85,65,49,37,23,20,18,17,29.86,29.77,15,2,15,0.00
2013-6-12,104,90,70,51,40,26,20,17,17,29.89,29.77,18,2,18,0.00
2013-6-13,100,86,68,48,37,26,20,18,17,29.86,29.74,13,0,13,0.00
2013-6-14,100,83,66,47,34,23,20,18,17,29.83,29.68,9,0,9,0.00
2013-6-15,98,83,67,45,35,24,20,18,17,29.86,29.74,15,1,15,0.00
2013-6-16,99,84,67,47,36,24,20,18,17,29.95,29.80,17,1,17,0.00
2013-6-17,98,83,63,46,35,22,21,18,17,30.12,29.74,20,0,20,0.00
2013-6-18,98,81,60,46,34,21,22,18,17,30.18,29.71,15,0,16,0.00
2013-6-19,89,70,60,38,26,21,22,20,17,30.03,29.77,14,0,14,0.00
2013-6-21,93,83,73,42,34,27,18,17,17,30.06,29.74,8,0,8,0.00
2013-6-22,96,80,61,44,33,21,22,18,17,30.45,29.83,11,0,11,0.00
2013-6-23,95,80,61,43,33,21,21,18,17,30.71,29.95,14,0,14,0.00
2013-6-24,92,80,70,41,32,26,19,18,17,31.07,29.77,12,0,12,0.00
2013-6-25,97,80,61,45,33,21,21,18,17,31.22,29.86,12,1,13,0.00
2013-6-26,100,84,63,47,35,22,21,18,17,31.10,29.98,17,1,17,0.00
2013-6-27,108,88,65,54,38,23,20,18,17,31.36,29.89,15,1,15,0.00
2013-6-28,113,91,72,58,41,27,19,17,17,31.28,29.83,23,1,23,0.00
2013-6-29,91,80,74,40,32,28,18,17,17,30.92,30.15,6,0,6,0.00
2013-6-30,93,87,82,42,37,33,17,17,17,31.72,30.24,4,0,4,0.00
2013-7-1,108,90,78,54,39,30,18,17,17,31.01,29.80,20,1,20,0.00
2013-7-2,103,82,70,56,42,27,60,27,17,34.32,30.06,20,1,20,0.16
2013-7-3,94,83,71,53,40,29,53,23,17,31.95,29.89,11,1,11,0.00
2013-7-4,103,87,68,50,42,30,42,23,17,34.46,30.80,11,1,11,0.00
2013-7-5,94,85,77,42,36,30,20,17,17,34.46,29.95,11,0,13,0.00
2013-7-6,99,82,73,46,35,28,22,18,17,34.46,30.36,17,0,17,0.00
2013-7-7,99,83,67,61,40,30,51,23,17,34.46,30.80,17,1,17,0.08
2013-7-8,104,88,71,50,41,30,37,20,17,34.46,30.06,13,1,13,0.00
2013-7-9,105,89,72,52,39,27,19,17,17,34.41,29.92,10,1,10,0.00
2013-7-10,102,84,74,58,45,32,56,28,17,34.46,30.15,27,1,27,0.16
2013-7-11,93,79,71,57,48,37,60,37,17,34.46,30.24,10,1,13,0.00
2013-7-12,90,73,65,63,53,37,91,55,17,34.46,30.63,14,1,14,0.04
2013-7-13,92,76,62,63,47,30,91,45,17,34.46,30.63,9,0,9,0.04
2013-7-14,100,84,71,48,41,30,40,23,17,34.46,31.78,13,0,13,0.04
2013-7-15,93,82,71,43,37,31,34,20,17,34.46,30.39,10,0,10,0.04
2013-7-16,88,76,68,66,48,36,93,44,18,34.46,30.66,15,1,15,0.51
2013-7-17,92,75,65,66,56,38,93,57,17,34.46,31.16,25,1,25,0.04
2013-7-18,96,80,68,62,46,34,77,36,17,34.46,30.60,15,1,15,0.04
2013-7-19,83,74,70,54,51,46,55,45,35,34.46,31.60,5,0,5,0.04
2013-7-21,76,74,72,56,52,49,57,46,39,34.46,31.81,0,0,0,0.00
2013-7-22,92,77,68,61,50,37,76,43,17,34.46,31.04,13,1,13,0.00
2013-7-23,94,78,68,58,49,39,68,40,17,34.46,26.31,12,1,12,0.00
2013-7-24,98,87,72,68,56,39,56,36,17,29.97,26.37,8,1,8,0.00
2013-7-25,94,81,72,64,61,56,68,52,37,30.03,29.88,10,1,10,0.00
2013-7-26,90,78,71,66,62,52,73,59,37,30.09,29.97,23,1,23,0.00
2013-7-27,86,74,67,71,63,56,94,70,41,30.06,29.88,13,2,13,0.16
2013-7-28,91,75,65,69,62,0,91,66,37,29.91,29.79,17,1,17,0.20
2013-7-29,95,80,65,65,59,47,81,51,37,30.00,29.88,12,1,12,0.00
2013-7-30,98,82,66,67,55,44,50,39,37,30.11,29.97,12,1,12,0.00
2013-7-31,102,83,69,70,56,45,56,39,37,30.09,29.91,15,1,18,0.08
2013-8-1,91,81,70,62,58,53,68,47,37,30.00,29.85,8,0,8,0.00
2013-8-2,99,84,70,68,58,49,63,42,37,29.97,29.85,13,0,13,0.00
2013-8-3,99,85,70,68,58,49,58,42,37,30.00,29.88,15,0,15,0.00
2013-8-4,97,84,72,67,56,46,41,38,37,30.00,29.91,9,0,9,0.00
2013-8-5,97,82,68,67,53,43,42,38,37,30.00,29.88,13,0,13,0.00
2013-8-6,81,73,68,66,57,46,95,62,38,30.03,29.91,11,1,11,0.04
2013-8-7,92,77,64,68,58,46,100,57,37,30.03,29.88,8,1,8,0.04
2013-8-8,97,81,64,66,53,40,43,38,37,29.97,29.82,10,0,10,0.00
2013-8-9,98,82,63,68,54,39,41,38,37,29.94,29.85,15,1,15,0.00
2013-8-10,96,85,71,66,56,45,39,37,37,29.97,29.91,6,0,6,0.00
2013-8-11,98,83,67,67,54,42,40,38,37,30.00,29.85,11,1,11,0.00
2013-8-14,88,84,80,59,55,52,37,37,37,29.91,29.88,8,1,8,0.00
2013-8-15,98,86,72,67,58,50,64,39,37,30.00,29.91,11,1,11,0.00
2013-8-16,102,86,71,70,57,45,39,37,37,30.00,29.88,13,0,13,0.00
2013-8-17,98,81,70,68,55,46,68,43,37,30.06,29.88,14,1,14,0.00
2013-8-18,98,79,67,67,57,50,78,48,37,30.00,29.91,22,1,22,0.24
2013-8-19,96,80,69,66,56,47,62,44,37,30.00,29.88,20,1,20,0.00
2013-8-20,99,82,65,68,58,47,69,44,37,29.97,29.82,13,1,13,0.12
2013-8-21,82,77,71,62,57,51,63,51,40,30.00,29.88,11,1,11,0.00
2013-8-22,93,79,69,64,58,53,85,52,37,30.00,29.85,10,1,10,0.55
2013-8-23,88,75,65,63,56,48,89,57,37,29.94,29.79,6,0,6,0.00
2013-8-24,84,73,67,68,56,47,100,57,37,30.03,29.88,8,1,10,0.04
2013-8-25,72,69,66,69,64,56,100,84,57,30.06,29.94,7,0,7,0.79
2013-8-26,87,74,66,69,65,60,100,76,43,30.03,29.88,10,1,10,0.08
2013-8-27,96,78,68,67,62,57,83,62,37,29.97,29.82,13,1,13,0.08
2013-8-28,94,80,66,64,59,52,83,52,37,29.97,29.85,13,1,13,0.00
2013-8-29,92,79,68,69,60,56,98,54,37,30.06,29.94,11,1,11,0.04
2013-8-31,69,68,68,66,65,64,96,89,84,29.97,29.97,0,0,0,0.04
2013-9-1,90,75,65,69,64,56,100,71,37,29.97,29.85,15,0,15,0.04
2013-9-2,93,78,66,64,60,51,91,58,37,29.97,29.85,17,1,17,0.04
2013-9-3,96,80,67,66,60,52,79,54,37,30.00,29.85,10,1,10,0.04
2013-9-4,97,82,70,67,59,52,67,48,37,30.03,29.88,16,1,16,0.04
2013-9-5,97,81,67,66,59,49,72,48,37,30.03,29.91,8,0,8,0.00
2013-9-6,98,82,70,68,56,47,58,41,37,30.00,29.85,17,1,17,0.04
2013-9-7,87,77,68,66,57,53,83,52,37,30.00,29.85,10,0,10,0.04
2013-9-8,76,70,66,68,64,60,100,82,61,29.94,29.82,8,0,8,0.75
2013-9-11,64,62,60,57,56,54,86,82,76,29.97,29.94,0,0,0,0.75
2013-9-12,88,71,57,58,54,46,93,59,37,29.97,29.82,6,0,6,0.75
2013-9-13,89,74,60,59,54,49,80,52,37,29.85,29.70,6,0,6,0.75
2013-9-14,89,74,62,60,54,48,75,52,37,29.82,29.70,8,1,8,0.75
2013-9-15,91,75,61,61,54,46,72,49,37,29.88,29.79,8,0,8,0.75
2013-9-16,92,78,63,62,53,45,62,44,37,29.94,29.79,8,0,8,0.75
2013-9-17,92,78,66,62,55,47,68,46,37,29.88,29.70,10,0,11,0.75
2013-9-18,91,77,64,61,53,43,62,45,37,29.79,29.70,14,0,15,0.75
2013-9-23,76,69,62,49,44,38,41,39,38,29.94,29.85,8,0,8,0.00
2013-9-24,88,70,53,58,44,31,43,39,37,30.00,29.82,6,0,6,0.00
2013-9-25,84,69,52,55,43,31,43,40,37,29.82,29.64,13,0,13,0.00
2013-9-26,80,70,59,51,44,36,42,39,37,29.73,29.61,15,2,15,0.00
2013-9-27,75,65,53,48,40,31,43,40,38,29.97,29.70,13,3,13,0.00
2013-9-28,80,63,46,52,39,26,44,41,37,30.09,29.97,6,0,6,0.00
2013-9-29,86,66,48,56,41,27,44,40,37,30.09,29.94,10,1,10,0.00
2013-9-30,86,68,49,57,42,28,44,40,37,30.00,29.82,8,1,8,0.00
2013-10-1,86,68,49,57,42,28,44,40,37,29.97,29.85,11,0,11,0.00
2013-10-2,83,67,50,54,42,29,44,40,37,29.97,29.82,8,0,8,0.00
2013-10-3,60,54,51,36,32,30,44,43,42,29.85,29.82,5,0,5,0.00
2013-10-7,80,69,59,51,43,36,42,40,37,29.91,29.88,7,1,7,0.00
2013-10-8,82,65,49,53,40,28,44,40,37,29.88,29.73,14,1,14,0.00
2013-10-9,74,61,49,47,37,28,44,41,38,29.73,29.64,7,0,7,0.00
2013-10-10,59,52,43,44,37,33,91,59,42,29.94,29.70,13,2,13,0.04
2013-10-11,72,54,38,46,38,30,88,57,39,29.97,29.85,6,0,6,0.00
2013-10-12,76,55,42,49,37,31,73,53,38,29.97,29.85,8,1,8,0.00
2013-10-13,75,66,54,47,41,32,43,40,38,29.91,29.82,18,3,18,0.00
2013-10-14,74,59,44,47,36,26,48,42,38,30.03,29.88,8,1,8,0.00
2013-10-15,74,57,40,47,34,21,46,42,38,29.94,29.79,10,1,10,0.00
2013-10-16,73,58,47,46,35,26,44,42,39,30.06,29.94,8,1,8,0.00
2013-10-17,75,57,38,48,34,20,46,42,38,30.03,29.85,10,0,10,0.00
2013-10-18,77,60,41,50,36,22,46,42,38,30.00,29.91,8,1,8,0.00
2013-10-19,80,60,42,51,37,23,46,41,37,30.06,29.88,9,1,9,0.00
2013-10-20,61,58,52,37,35,30,43,42,42,29.88,29.85,6,0,6,0.00
2013-10-21,80,61,43,52,37,23,46,41,37,30.00,29.88,6,1,6,0.00
2013-10-22,81,62,44,52,38,24,45,41,37,30.06,29.91,8,1,8,0.00
2013-10-23,84,64,44,55,39,24,45,41,37,30.00,29.85,9,1,9,0.00
2013-10-24,83,66,53,54,41,32,43,40,37,29.97,29.85,9,0,9,0.00
2013-10-25,81,62,45,52,38,25,45,41,37,30.06,29.94,8,0,8,0.00
2013-10-26,82,62,48,53,38,27,44,41,37,30.11,30.00,8,1,8,0.00
2013-10-28,72,66,58,45,41,34,42,40,39,29.76,29.67,26,5,26,0.00
2013-10-29,58,50,45,35,29,25,47,45,42,29.85,29.79,6,0,6,0.00
2013-10-30,64,52,39,40,32,25,71,48,40,29.97,29.85,15,2,15,0.00
2013-10-31,66,46,34,40,26,18,55,46,40,30.06,29.97,7,0,7,0.00
2013-11-3,75,64,48,47,40,27,44,41,38,29.82,29.70,13,4,13,0.00
2013-11-4,70,55,39,44,32,0,46,43,39,29.79,29.67,15,1,15,0.00
2013-11-5,66,52,41,40,32,23,62,46,40,30.11,29.79,8,1,8,0.00
2013-11-6,71,51,32,45,30,15,48,44,39,30.23,30.11,10,0,10,0.00
2013-11-7,74,56,39,47,33,20,46,43,38,30.20,30.00,6,1,6,0.00
2013-11-8,73,54,38,47,32,19,46,43,38,30.09,29.91,7,0,7,0.00
2013-11-9,75,54,40,48,32,21,46,43,38,30.09,29.97,6,0,6,0.00
2013-11-10,73,60,50,47,36,28,44,42,39,30.06,30.03,0,0,0,0.00
2013-11-11,82,61,43,53,37,23,45,41,37,30.11,30.00,10,1,10,0.00
2013-11-12,82,64,50,53,39,29,44,41,37,30.20,30.09,8,0,8,0.00
2013-11-14,75,62,44,48,38,28,63,43,38,30.00,29.79,8,1,8,0.00
2013-11-15,71,56,47,47,37,28,88,50,39,29.79,29.55,17,4,17,0.31
2013-11-16,63,53,45,50,44,39,100,76,49,29.76,29.64,15,4,15,0.04
2013-11-20,54,52,50,46,46,45,87,79,72,29.82,29.79,0,0,0,0.00
2013-11-21,58,52,48,48,46,42,97,80,61,29.91,29.79,7,0,7,0.16
2013-11-22,48,47,46,48,47,42,100,99,82,29.88,29.79,8,1,8,1.02
2013-11-23,47,45,41,47,42,37,100,92,73,30.00,29.88,12,2,12,0.63
2013-11-24,50,42,36,41,39,34,100,90,68,30.06,29.97,6,0,6,0.47
2013-11-25,58,44,32,42,36,32,100,78,44,30.14,30.03,6,0,6,0.47
2013-11-26,64,49,34,40,34,29,86,59,41,30.20,30.09,10,1,10,0.00
2013-11-27,60,48,39,37,32,27,78,56,42,30.14,29.94,10,1,10,0.00
2013-11-28,61,45,34,37,31,26,80,59,41,30.06,29.94,5,0,5,0.00
2013-11-29,63,48,35,39,33,28,80,60,41,30.11,30.03,6,0,6,0.00
2013-11-30,64,49,36,39,36,32,88,63,41,30.14,30.00,5,0,6,0.00
2013-12-1,60,46,36,39,34,30,87,65,44,30.17,30.06,8,0,8,0.00
2013-12-2,61,46,34,37,32,28,83,60,41,30.11,29.82,6,0,6,0.00
2013-12-3,62,48,35,39,33,27,91,60,41,29.82,29.58,15,2,15,0.00
2013-12-4,54,48,39,43,36,32,98,66,45,29.73,29.52,17,7,17,0.08
2013-12-5,46,36,24,26,21,12,86,55,45,29.94,29.79,14,1,14,0.08
2013-12-6,44,31,20,24,16,12,74,55,45,30.06,29.94,6,0,6,0.08
2013-12-7,45,34,21,33,22,0,82,62,47,29.94,29.76,18,4,18,0.08
2013-12-8,47,38,30,38,29,21,100,71,48,29.94,29.79,10,2,10,0.08
2013-12-9,43,31,23,23,15,8,76,53,46,30.26,29.94,10,2,232,0.08
2013-12-10,50,32,19,29,14,4,55,48,44,30.26,30.03,8,1,8,0.00
2013-12-11,54,37,25,32,19,9,54,47,43,30.17,30.09,6,0,6,0.00
2013-12-12,62,45,30,38,26,14,74,49,41,30.17,29.97,8,0,8,0.00
2013-12-13,58,44,32,35,30,22,83,61,42,30.09,29.94,6,0,6,0.00
2013-12-14,59,43,31,36,25,17,60,49,42,30.26,30.09,10,1,10,0.00
2013-12-15,67,45,29,42,25,13,53,46,40,30.26,30.11,7,0,7,0.00
2013-12-16,72,50,34,46,29,17,50,44,39,30.20,30.09,7,0,7,0.00
2013-12-17,73,51,36,47,29,18,49,44,39,30.23,30.06,8,0,8,0.00
2013-12-18,62,48,36,38,28,19,52,45,41,30.09,29.76,0,0,0,0.00
2013-12-19,60,48,39,44,32,22,100,56,42,29.76,29.61,15,3,15,0.28
2013-12-20,45,41,37,42,39,36,100,95,83,29.70,29.61,8,0,8,0.59
2013-12-21,46,38,34,40,36,32,100,92,71,29.91,29.67,6,0,6,0.08
2013-12-22,51,38,31,37,32,26,100,80,44,30.17,29.91,5,0,5,0.04
2013-12-23,60,42,30,37,27,20,81,57,42,30.29,30.17,4,0,5,0.00
2013-12-24,60,44,32,37,28,21,75,54,42,30.20,30.06,6,0,6,0.00
2013-12-25,62,47,31,38,28,18,65,47,41,30.23,30.14,8,1,8,0.00
2013-12-26,62,44,29,38,24,12,48,45,41,30.20,30.09,8,0,8,0.00
2013-12-27,67,45,31,42,25,13,48,45,40,30.20,30.03,8,0,8,0.00
2013-12-28,54,42,31,32,24,17,67,49,43,30.09,29.88,4,0,4,0.00
2013-12-29,59,43,32,36,26,16,66,50,42,30.11,29.91,11,1,11,0.00
2013-12-30,60,40,25,36,21,9,51,46,42,30.20,30.09,6,0,6,0.00
2013-12-31,61,43,30,37,24,14,53,46,41,30.17,30.03,6,0,6,0.00
2014-1-1,65,47,32,40,27,17,58,46,40,30.11,30.00,8,0,8,0.00
2014-1-2,64,47,31,40,26,14,48,45,40,30.17,30.03,6,1,6,0.00